Aérodrome :
LOGIN :

S'inscrire | Disclaimer

   EN    FR    IT 

 










Légende :    VFR   VFR Marginal   IFR   IFR Intensif   IFR Très Intensif
Visi : 
Plafond : 
>= 8 km
>= 3000ft
5 à 8 km
1000 à 3000 ft
1500m à 5 km
500 à 1000 ft
800 à 1500m
200 à 500 ft
< 800m
< 200 ft
Symboles :   Orages  Brouillard  Fortes neiges  Fortes précipitations  Vent > 20 kt
SIGMETs :   Divers  Orages  Givrage  Turbulence  Onde Orograph.  Cendres Volcan.






- Altitude de l'aérodrome : 164 ft
- Code IATA : VBY


ESSV - Visby

DERNIER METAR :
  • 160220Z AUTO 33015KT 9999 OVC013/// M01/M04 Q1018

METARs EXPIRÉS :
  • 160150Z AUTO 32015KT 9999 SG BKN010/// OVC013/// M01/M04 Q1018
  • 160120Z AUTO 32015KT 9999 SG OVC010/// M01/M04 Q1019
  • 160050Z AUTO 32015KT 7000 -SN OVC010/// M01/M03 Q1019
  • 160020Z AUTO 32016KT 2800 -SN SCT005/// BKN013/// BKN020/// M01/M03 Q1019 RESG RESHUP REDZ
  • 152350Z AUTO 34014KT 9999 BKN019/// OVC027/// M01/M04 Q1020
  • 152320Z AUTO 34013KT 9999 BKN018/// BKN021/// OVC029/// M01/M05 Q1020 RESG

Prévision TAF périmée.



MET'MAP, la Météo Aéronautique d'un coup d'oeil ! - Copyright ORBIFLY Décembre 2007 - Disclaimer

ORBIFLY MET'MAP TEAM :

Programmation & Développement : Alexandra Zaïnal
Sur une idée originale de : Baudouin d'Aumeries
Assistance à la programmation : Marc-Olivier Méhu
Soutien technique & logistique : Manuel Goepfert

Contact : metmap@orbifly.com




SOURCES & CREDITS :

   NOAA